sensor_id;sensor_type;location;lat;lon;timestamp;P1;durP1;ratioP1;P2;durP2;ratioP2
5646;SDS011;2845;48.626;9.362;2023-11-22T00:02:30;8.73;;;4.05;;
5646;SDS011;2845;48.626;9.362;2023-11-22T00:05:04;7.05;;;3.55;;
5646;SDS011;2845;48.626;9.362;2023-11-22T00:07:43;7.90;;;3.80;;
5646;SDS011;2845;48.626;9.362;2023-11-22T00:10:17;8.65;;;4.05;;
5646;SDS011;2845;48.626;9.362;2023-11-22T00:12:52;10.13;;;4.40;;
5646;SDS011;2845;48.626;9.362;2023-11-22T00:15:26;7.55;;;3.80;;
5646;SDS011;2845;48.626;9.362;2023-11-22T00:18:01;8.85;;;4.07;;
5646;SDS011;2845;48.626;9.362;2023-11-22T00:20:36;9.15;;;3.60;;
5646;SDS011;2845;48.626;9.362;2023-11-22T00:23:12;10.65;;;4.38;;
5646;SDS011;2845;48.626;9.362;2023-11-22T00:25:46;9.60;;;3.95;;
5646;SDS011;2845;48.626;9.362;2023-11-22T00:28:20;10.15;;;3.97;;
5646;SDS011;2845;48.626;9.362;2023-11-22T00:30:55;8.68;;;4.10;;
5646;SDS011;2845;48.626;9.362;2023-11-22T00:33:30;7.78;;;3.55;;
5646;SDS011;2845;48.626;9.362;2023-11-22T00:36:04;7.35;;;3.85;;
5646;SDS011;2845;48.626;9.362;2023-11-22T00:38:41;8.75;;;3.80;;
5646;SDS011;2845;48.626;9.362;2023-11-22T00:41:16;7.97;;;3.45;;
5646;SDS011;2845;48.626;9.362;2023-11-22T00:43:50;7.97;;;3.55;;
5646;SDS011;2845;48.626;9.362;2023-11-22T00:46:27;7.57;;;3.60;;
5646;SDS011;2845;48.626;9.362;2023-11-22T00:49:01;6.80;;;3.35;;
5646;SDS011;2845;48.626;9.362;2023-11-22T00:51:36;8.55;;;3.30;;
5646;SDS011;2845;48.626;9.362;2023-11-22T00:54:13;9.57;;;3.90;;
5646;SDS011;2845;48.626;9.362;2023-11-22T00:56:47;10.23;;;4.30;;
5646;SDS011;2845;48.626;9.362;2023-11-22T00:59:21;6.93;;;2.72;;
5646;SDS011;2845;48.626;9.362;2023-11-22T01:01:56;4.90;;;1.92;;
5646;SDS011;2845;48.626;9.362;2023-11-22T01:04:32;2.90;;;1.50;;
5646;SDS011;2845;48.626;9.362;2023-11-22T01:07:08;2.08;;;1.00;;
5646;SDS011;2845;48.626;9.362;2023-11-22T01:09:44;2.28;;;1.15;;
5646;SDS011;2845;48.626;9.362;2023-11-22T01:12:19;3.42;;;1.40;;
5646;SDS011;2845;48.626;9.362;2023-11-22T01:14:53;2.40;;;1.30;;
5646;SDS011;2845;48.626;9.362;2023-11-22T01:17:27;2.70;;;1.25;;
5646;SDS011;2845;48.626;9.362;2023-11-22T01:20:02;3.13;;;1.42;;
5646;SDS011;2845;48.626;9.362;2023-11-22T01:22:37;3.60;;;1.73;;
5646;SDS011;2845;48.626;9.362;2023-11-22T01:25:13;2.72;;;1.70;;
5646;SDS011;2845;48.626;9.362;2023-11-22T01:27:47;5.00;;;1.55;;
5646;SDS011;2845;48.626;9.362;2023-11-22T01:30:22;4.60;;;2.53;;
5646;SDS011;2845;48.626;9.362;2023-11-22T01:33:00;4.10;;;1.98;;
5646;SDS011;2845;48.626;9.362;2023-11-22T01:35:34;4.18;;;2.10;;
5646;SDS011;2845;48.626;9.362;2023-11-22T01:38:08;5.13;;;2.40;;
5646;SDS011;2845;48.626;9.362;2023-11-22T01:40:44;6.50;;;2.42;;
5646;SDS011;2845;48.626;9.362;2023-11-22T01:43:20;3.97;;;2.05;;
5646;SDS011;2845;48.626;9.362;2023-11-22T01:45:56;5.00;;;1.85;;
5646;SDS011;2845;48.626;9.362;2023-11-22T01:48:30;4.10;;;2.10;;
5646;SDS011;2845;48.626;9.362;2023-11-22T01:51:05;3.85;;;1.83;;
5646;SDS011;2845;48.626;9.362;2023-11-22T01:53:41;4.85;;;2.38;;
5646;SDS011;2845;48.626;9.362;2023-11-22T01:56:16;5.32;;;2.03;;
5646;SDS011;2845;48.626;9.362;2023-11-22T01:58:51;4.72;;;2.00;;
5646;SDS011;2845;48.626;9.362;2023-11-22T02:01:27;5.25;;;2.10;;
5646;SDS011;2845;48.626;9.362;2023-11-22T02:04:01;6.38;;;2.50;;
5646;SDS011;2845;48.626;9.362;2023-11-22T02:06:35;5.28;;;2.22;;
5646;SDS011;2845;48.626;9.362;2023-11-22T02:09:10;5.57;;;2.45;;
5646;SDS011;2845;48.626;9.362;2023-11-22T02:11:49;5.68;;;2.33;;
5646;SDS011;2845;48.626;9.362;2023-11-22T02:14:24;4.95;;;2.40;;
5646;SDS011;2845;48.626;9.362;2023-11-22T02:16:59;4.78;;;2.20;;
5646;SDS011;2845;48.626;9.362;2023-11-22T02:19:33;6.88;;;2.58;;
5646;SDS011;2845;48.626;9.362;2023-11-22T02:22:09;4.72;;;2.60;;
5646;SDS011;2845;48.626;9.362;2023-11-22T02:24:45;4.65;;;2.20;;
5646;SDS011;2845;48.626;9.362;2023-11-22T02:27:19;5.35;;;2.65;;
5646;SDS011;2845;48.626;9.362;2023-11-22T02:29:55;5.63;;;2.90;;
5646;SDS011;2845;48.626;9.362;2023-11-22T02:32:29;5.32;;;2.58;;
5646;SDS011;2845;48.626;9.362;2023-11-22T02:35:04;6.57;;;2.78;;
5646;SDS011;2845;48.626;9.362;2023-11-22T02:37:40;6.38;;;2.72;;
5646;SDS011;2845;48.626;9.362;2023-11-22T02:40:21;6.70;;;3.22;;
5646;SDS011;2845;48.626;9.362;2023-11-22T02:42:56;6.63;;;2.97;;
5646;SDS011;2845;48.626;9.362;2023-11-22T02:45:30;5.47;;;2.90;;
5646;SDS011;2845;48.626;9.362;2023-11-22T02:48:05;5.88;;;2.53;;
5646;SDS011;2845;48.626;9.362;2023-11-22T02:50:41;4.65;;;2.47;;
5646;SDS011;2845;48.626;9.362;2023-11-22T02:53:16;5.57;;;2.80;;
5646;SDS011;2845;48.626;9.362;2023-11-22T02:55:52;4.65;;;2.50;;
5646;SDS011;2845;48.626;9.362;2023-11-22T02:58:29;4.97;;;2.60;;
5646;SDS011;2845;48.626;9.362;2023-11-22T03:01:04;5.85;;;2.75;;
5646;SDS011;2845;48.626;9.362;2023-11-22T03:03:39;5.65;;;3.10;;
5646;SDS011;2845;48.626;9.362;2023-11-22T03:06:14;5.82;;;2.80;;
5646;SDS011;2845;48.626;9.362;2023-11-22T03:08:48;5.82;;;3.13;;
5646;SDS011;2845;48.626;9.362;2023-11-22T03:11:24;6.22;;;2.95;;
5646;SDS011;2845;48.626;9.362;2023-11-22T03:13:59;6.28;;;3.08;;
5646;SDS011;2845;48.626;9.362;2023-11-22T03:16:38;6.05;;;2.85;;
5646;SDS011;2845;48.626;9.362;2023-11-22T03:19:13;7.07;;;3.05;;
5646;SDS011;2845;48.626;9.362;2023-11-22T03:21:47;7.65;;;2.85;;
5646;SDS011;2845;48.626;9.362;2023-11-22T03:24:22;8.02;;;3.28;;
5646;SDS011;2845;48.626;9.362;2023-11-22T03:26:57;6.45;;;2.95;;
5646;SDS011;2845;48.626;9.362;2023-11-22T03:29:32;5.90;;;3.28;;
5646;SDS011;2845;48.626;9.362;2023-11-22T03:32:07;8.45;;;4.38;;
5646;SDS011;2845;48.626;9.362;2023-11-22T03:34:41;6.30;;;3.13;;
5646;SDS011;2845;48.626;9.362;2023-11-22T03:37:15;8.13;;;3.15;;
5646;SDS011;2845;48.626;9.362;2023-11-22T03:39:50;6.80;;;3.55;;
5646;SDS011;2845;48.626;9.362;2023-11-22T03:42:26;5.32;;;2.90;;
5646;SDS011;2845;48.626;9.362;2023-11-22T03:45:02;5.72;;;2.58;;
5646;SDS011;2845;48.626;9.362;2023-11-22T03:47:37;6.00;;;3.05;;
5646;SDS011;2845;48.626;9.362;2023-11-22T03:50:12;5.90;;;2.97;;
5646;SDS011;2845;48.626;9.362;2023-11-22T03:52:47;5.72;;;3.00;;
5646;SDS011;2845;48.626;9.362;2023-11-22T03:55:21;6.15;;;2.70;;
5646;SDS011;2845;48.626;9.362;2023-11-22T03:57:57;6.90;;;2.80;;
5646;SDS011;2845;48.626;9.362;2023-11-22T04:00:31;5.38;;;2.53;;
5646;SDS011;2845;48.626;9.362;2023-11-22T04:03:06;6.70;;;2.70;;
5646;SDS011;2845;48.626;9.362;2023-11-22T04:05:40;5.57;;;2.78;;
5646;SDS011;2845;48.626;9.362;2023-11-22T04:08:15;4.72;;;2.60;;
5646;SDS011;2845;48.626;9.362;2023-11-22T04:10:50;5.28;;;2.50;;
5646;SDS011;2845;48.626;9.362;2023-11-22T04:13:25;6.07;;;2.13;;
5646;SDS011;2845;48.626;9.362;2023-11-22T04:16:01;5.57;;;2.30;;
5646;SDS011;2845;48.626;9.362;2023-11-22T04:18:35;5.53;;;2.45;;
5646;SDS011;2845;48.626;9.362;2023-11-22T04:21:11;5.03;;;2.33;;
5646;SDS011;2845;48.626;9.362;2023-11-22T04:23:45;5.82;;;2.72;;
5646;SDS011;2845;48.626;9.362;2023-11-22T04:26:20;6.10;;;2.95;;
5646;SDS011;2845;48.626;9.362;2023-11-22T04:28:56;6.57;;;2.55;;
5646;SDS011;2845;48.626;9.362;2023-11-22T04:31:31;7.82;;;3.45;;
5646;SDS011;2845;48.626;9.362;2023-11-22T04:34:05;4.85;;;2.50;;
5646;SDS011;2845;48.626;9.362;2023-11-22T04:36:39;7.00;;;3.13;;
5646;SDS011;2845;48.626;9.362;2023-11-22T04:39:14;5.60;;;2.50;;
5646;SDS011;2845;48.626;9.362;2023-11-22T04:41:49;7.00;;;2.78;;
5646;SDS011;2845;48.626;9.362;2023-11-22T04:44:25;5.22;;;2.75;;
5646;SDS011;2845;48.626;9.362;2023-11-22T04:47:00;6.25;;;2.58;;
5646;SDS011;2845;48.626;9.362;2023-11-22T04:49:35;6.80;;;2.83;;
5646;SDS011;2845;48.626;9.362;2023-11-22T04:52:09;7.15;;;2.60;;
5646;SDS011;2845;48.626;9.362;2023-11-22T04:54:44;5.95;;;2.63;;
5646;SDS011;2845;48.626;9.362;2023-11-22T04:57:18;5.93;;;2.47;;
5646;SDS011;2845;48.626;9.362;2023-11-22T04:59:55;4.97;;;2.47;;
5646;SDS011;2845;48.626;9.362;2023-11-22T05:02:32;6.38;;;2.58;;
5646;SDS011;2845;48.626;9.362;2023-11-22T05:05:07;6.47;;;2.50;;
5646;SDS011;2845;48.626;9.362;2023-11-22T05:07:43;5.82;;;2.58;;
5646;SDS011;2845;48.626;9.362;2023-11-22T05:10:18;5.95;;;2.70;;
5646;SDS011;2845;48.626;9.362;2023-11-22T05:12:53;4.95;;;2.20;;
5646;SDS011;2845;48.626;9.362;2023-11-22T05:15:33;5.82;;;2.65;;
5646;SDS011;2845;48.626;9.362;2023-11-22T05:18:07;7.13;;;2.95;;
5646;SDS011;2845;48.626;9.362;2023-11-22T05:20:41;3.97;;;1.77;;
5646;SDS011;2845;48.626;9.362;2023-11-22T05:23:16;6.38;;;2.88;;
5646;SDS011;2845;48.626;9.362;2023-11-22T05:25:50;6.32;;;2.55;;
5646;SDS011;2845;48.626;9.362;2023-11-22T05:28:25;5.35;;;2.53;;
5646;SDS011;2845;48.626;9.362;2023-11-22T05:31:01;5.55;;;2.50;;
5646;SDS011;2845;48.626;9.362;2023-11-22T05:33:36;5.38;;;2.20;;
5646;SDS011;2845;48.626;9.362;2023-11-22T05:36:10;5.70;;;2.50;;
5646;SDS011;2845;48.626;9.362;2023-11-22T05:38:44;5.63;;;2.27;;
5646;SDS011;2845;48.626;9.362;2023-11-22T05:41:19;4.75;;;2.20;;
5646;SDS011;2845;48.626;9.362;2023-11-22T05:43:53;5.27;;;2.30;;
5646;SDS011;2845;48.626;9.362;2023-11-22T05:46:28;4.60;;;2.15;;
5646;SDS011;2845;48.626;9.362;2023-11-22T05:49:03;5.30;;;2.15;;
5646;SDS011;2845;48.626;9.362;2023-11-22T05:51:38;4.00;;;1.73;;
5646;SDS011;2845;48.626;9.362;2023-11-22T05:54:12;5.10;;;2.13;;
5646;SDS011;2845;48.626;9.362;2023-11-22T05:56:48;5.30;;;2.25;;
5646;SDS011;2845;48.626;9.362;2023-11-22T05:59:23;4.23;;;1.97;;
5646;SDS011;2845;48.626;9.362;2023-11-22T06:01:58;4.05;;;2.15;;
5646;SDS011;2845;48.626;9.362;2023-11-22T06:04:32;5.30;;;2.03;;
5646;SDS011;2845;48.626;9.362;2023-11-22T06:07:10;3.08;;;1.65;;
5646;SDS011;2845;48.626;9.362;2023-11-22T06:09:44;7.25;;;2.38;;
5646;SDS011;2845;48.626;9.362;2023-11-22T06:12:19;3.90;;;1.60;;
5646;SDS011;2845;48.626;9.362;2023-11-22T06:14:54;4.13;;;2.30;;
5646;SDS011;2845;48.626;9.362;2023-11-22T06:17:30;6.20;;;2.38;;
5646;SDS011;2845;48.626;9.362;2023-11-22T06:20:05;9.27;;;5.78;;
5646;SDS011;2845;48.626;9.362;2023-11-22T06:22:42;7.05;;;3.28;;
5646;SDS011;2845;48.626;9.362;2023-11-22T06:25:17;8.75;;;4.22;;
5646;SDS011;2845;48.626;9.362;2023-11-22T06:27:54;14.00;;;7.40;;
5646;SDS011;2845;48.626;9.362;2023-11-22T06:30:31;7.57;;;5.13;;
5646;SDS011;2845;48.626;9.362;2023-11-22T06:33:08;6.13;;;2.85;;
5646;SDS011;2845;48.626;9.362;2023-11-22T06:35:43;6.47;;;3.80;;
5646;SDS011;2845;48.626;9.362;2023-11-22T06:38:18;6.80;;;2.83;;
5646;SDS011;2845;48.626;9.362;2023-11-22T06:40:52;3.63;;;1.75;;
5646;SDS011;2845;48.626;9.362;2023-11-22T06:43:26;6.68;;;4.25;;
5646;SDS011;2845;48.626;9.362;2023-11-22T06:46:01;5.45;;;3.03;;
5646;SDS011;2845;48.626;9.362;2023-11-22T06:48:39;4.75;;;2.63;;
5646;SDS011;2845;48.626;9.362;2023-11-22T06:51:14;6.82;;;2.72;;
5646;SDS011;2845;48.626;9.362;2023-11-22T06:53:48;4.55;;;2.10;;
5646;SDS011;2845;48.626;9.362;2023-11-22T06:56:23;6.40;;;3.25;;
5646;SDS011;2845;48.626;9.362;2023-11-22T06:58:57;9.05;;;4.55;;
5646;SDS011;2845;48.626;9.362;2023-11-22T07:01:32;15.80;;;10.48;;
5646;SDS011;2845;48.626;9.362;2023-11-22T07:04:08;12.55;;;7.15;;
5646;SDS011;2845;48.626;9.362;2023-11-22T07:06:43;6.53;;;3.13;;
5646;SDS011;2845;48.626;9.362;2023-11-22T07:09:17;42.40;;;11.95;;
5646;SDS011;2845;48.626;9.362;2023-11-22T07:11:52;74.20;;;18.50;;
5646;SDS011;2845;48.626;9.362;2023-11-22T07:14:29;50.35;;;11.80;;
5646;SDS011;2845;48.626;9.362;2023-11-22T07:17:04;35.42;;;9.98;;
5646;SDS011;2845;48.626;9.362;2023-11-22T07:19:40;7.38;;;3.67;;
5646;SDS011;2845;48.626;9.362;2023-11-22T07:22:19;4.47;;;2.37;;
5646;SDS011;2845;48.626;9.362;2023-11-22T07:24:54;4.32;;;2.13;;
5646;SDS011;2845;48.626;9.362;2023-11-22T07:27:32;3.97;;;2.20;;
5646;SDS011;2845;48.626;9.362;2023-11-22T07:30:09;4.30;;;2.13;;
5646;SDS011;2845;48.626;9.362;2023-11-22T07:32:45;4.20;;;1.90;;
5646;SDS011;2845;48.626;9.362;2023-11-22T07:35:22;4.82;;;2.45;;
5646;SDS011;2845;48.626;9.362;2023-11-22T07:37:58;4.68;;;2.05;;
5646;SDS011;2845;48.626;9.362;2023-11-22T07:40:32;5.57;;;2.70;;
5646;SDS011;2845;48.626;9.362;2023-11-22T07:43:08;5.13;;;2.47;;
5646;SDS011;2845;48.626;9.362;2023-11-22T07:45:43;5.18;;;2.50;;
5646;SDS011;2845;48.626;9.362;2023-11-22T07:48:19;5.30;;;2.38;;
5646;SDS011;2845;48.626;9.362;2023-11-22T07:50:56;6.15;;;2.47;;
5646;SDS011;2845;48.626;9.362;2023-11-22T07:53:31;6.00;;;4.00;;
5646;SDS011;2845;48.626;9.362;2023-11-22T07:56:07;5.82;;;3.20;;
5646;SDS011;2845;48.626;9.362;2023-11-22T07:58:44;7.18;;;2.90;;
5646;SDS011;2845;48.626;9.362;2023-11-22T08:01:18;4.90;;;2.60;;
5646;SDS011;2845;48.626;9.362;2023-11-22T08:03:52;6.55;;;2.50;;
5646;SDS011;2845;48.626;9.362;2023-11-22T08:06:29;4.75;;;1.90;;
5646;SDS011;2845;48.626;9.362;2023-11-22T08:09:03;4.10;;;1.83;;
5646;SDS011;2845;48.626;9.362;2023-11-22T08:11:40;4.53;;;1.95;;
5646;SDS011;2845;48.626;9.362;2023-11-22T08:14:14;5.05;;;2.50;;
5646;SDS011;2845;48.626;9.362;2023-11-22T08:16:49;5.00;;;1.98;;
5646;SDS011;2845;48.626;9.362;2023-11-22T08:19:24;3.72;;;2.10;;
5646;SDS011;2845;48.626;9.362;2023-11-22T08:22:01;4.15;;;2.05;;
5646;SDS011;2845;48.626;9.362;2023-11-22T08:24:36;4.40;;;1.80;;
5646;SDS011;2845;48.626;9.362;2023-11-22T08:27:10;4.63;;;1.80;;
5646;SDS011;2845;48.626;9.362;2023-11-22T08:29:46;4.95;;;2.58;;
5646;SDS011;2845;48.626;9.362;2023-11-22T08:32:20;4.70;;;2.60;;
5646;SDS011;2845;48.626;9.362;2023-11-22T08:35:00;5.78;;;3.25;;
5646;SDS011;2845;48.626;9.362;2023-11-22T08:37:41;6.63;;;3.45;;
5646;SDS011;2845;48.626;9.362;2023-11-22T08:40:15;4.93;;;2.28;;
5646;SDS011;2845;48.626;9.362;2023-11-22T08:42:52;4.95;;;2.97;;
5646;SDS011;2845;48.626;9.362;2023-11-22T08:45:26;4.20;;;2.33;;
5646;SDS011;2845;48.626;9.362;2023-11-22T08:48:01;5.18;;;2.60;;
5646;SDS011;2845;48.626;9.362;2023-11-22T08:50:36;4.32;;;2.30;;
5646;SDS011;2845;48.626;9.362;2023-11-22T08:53:12;6.80;;;2.40;;
5646;SDS011;2845;48.626;9.362;2023-11-22T08:55:47;4.85;;;2.38;;
5646;SDS011;2845;48.626;9.362;2023-11-22T08:58:22;4.15;;;1.85;;
5646;SDS011;2845;48.626;9.362;2023-11-22T09:00:56;3.45;;;1.70;;
5646;SDS011;2845;48.626;9.362;2023-11-22T09:03:31;4.78;;;2.60;;
5646;SDS011;2845;48.626;9.362;2023-11-22T09:06:06;4.32;;;1.95;;
5646;SDS011;2845;48.626;9.362;2023-11-22T09:08:41;5.40;;;2.10;;
5646;SDS011;2845;48.626;9.362;2023-11-22T09:11:18;4.05;;;1.85;;
5646;SDS011;2845;48.626;9.362;2023-11-22T09:13:54;4.03;;;1.73;;
5646;SDS011;2845;48.626;9.362;2023-11-22T09:16:34;4.65;;;1.70;;
5646;SDS011;2845;48.626;9.362;2023-11-22T09:19:08;4.25;;;2.15;;
5646;SDS011;2845;48.626;9.362;2023-11-22T09:21:43;4.70;;;1.90;;
5646;SDS011;2845;48.626;9.362;2023-11-22T09:24:19;4.47;;;2.55;;
5646;SDS011;2845;48.626;9.362;2023-11-22T09:26:53;4.93;;;1.73;;
5646;SDS011;2845;48.626;9.362;2023-11-22T09:29:27;3.53;;;2.10;;
5646;SDS011;2845;48.626;9.362;2023-11-22T09:32:01;2.95;;;1.42;;
5646;SDS011;2845;48.626;9.362;2023-11-22T09:34:35;3.80;;;1.52;;
5646;SDS011;2845;48.626;9.362;2023-11-22T09:37:09;4.07;;;1.92;;
5646;SDS011;2845;48.626;9.362;2023-11-22T09:39:45;5.63;;;1.90;;
5646;SDS011;2845;48.626;9.362;2023-11-22T09:42:19;4.40;;;1.67;;
5646;SDS011;2845;48.626;9.362;2023-11-22T09:44:53;10.57;;;6.57;;
5646;SDS011;2845;48.626;9.362;2023-11-22T09:47:28;8.85;;;4.93;;
5646;SDS011;2845;48.626;9.362;2023-11-22T09:50:06;6.57;;;4.00;;
5646;SDS011;2845;48.626;9.362;2023-11-22T09:52:46;8.18;;;5.18;;
5646;SDS011;2845;48.626;9.362;2023-11-22T09:55:27;8.10;;;5.50;;
5646;SDS011;2845;48.626;9.362;2023-11-22T09:58:03;5.40;;;3.60;;
5646;SDS011;2845;48.626;9.362;2023-11-22T10:00:39;7.63;;;3.55;;
5646;SDS011;2845;48.626;9.362;2023-11-22T10:03:14;5.75;;;2.80;;
5646;SDS011;2845;48.626;9.362;2023-11-22T10:05:51;4.80;;;2.28;;
5646;SDS011;2845;48.626;9.362;2023-11-22T10:08:25;6.57;;;2.90;;
5646;SDS011;2845;48.626;9.362;2023-11-22T10:11:03;4.93;;;2.83;;
5646;SDS011;2845;48.626;9.362;2023-11-22T10:13:39;4.97;;;2.10;;
5646;SDS011;2845;48.626;9.362;2023-11-22T10:16:14;4.72;;;2.60;;
5646;SDS011;2845;48.626;9.362;2023-11-22T10:18:48;7.88;;;5.43;;
5646;SDS011;2845;48.626;9.362;2023-11-22T10:21:23;10.27;;;4.13;;
5646;SDS011;2845;48.626;9.362;2023-11-22T10:24:00;4.95;;;2.65;;
5646;SDS011;2845;48.626;9.362;2023-11-22T10:26:37;5.45;;;2.30;;
5646;SDS011;2845;48.626;9.362;2023-11-22T10:29:12;5.55;;;2.33;;
5646;SDS011;2845;48.626;9.362;2023-11-22T10:31:46;5.35;;;2.20;;
5646;SDS011;2845;48.626;9.362;2023-11-22T10:34:21;5.20;;;2.17;;
5646;SDS011;2845;48.626;9.362;2023-11-22T10:36:57;4.25;;;2.05;;
5646;SDS011;2845;48.626;9.362;2023-11-22T10:39:31;6.68;;;2.33;;
5646;SDS011;2845;48.626;9.362;2023-11-22T10:42:07;5.00;;;2.38;;
5646;SDS011;2845;48.626;9.362;2023-11-22T10:44:42;4.55;;;2.33;;
5646;SDS011;2845;48.626;9.362;2023-11-22T10:47:17;6.55;;;2.63;;
5646;SDS011;2845;48.626;9.362;2023-11-22T10:49:51;7.63;;;3.67;;
5646;SDS011;2845;48.626;9.362;2023-11-22T10:52:26;8.35;;;3.63;;
5646;SDS011;2845;48.626;9.362;2023-11-22T10:55:01;4.60;;;2.53;;
5646;SDS011;2845;48.626;9.362;2023-11-22T10:57:42;4.82;;;2.42;;
5646;SDS011;2845;48.626;9.362;2023-11-22T11:00:20;5.68;;;2.88;;
5646;SDS011;2845;48.626;9.362;2023-11-22T11:02:58;4.28;;;2.33;;
5646;SDS011;2845;48.626;9.362;2023-11-22T11:05:34;4.43;;;2.47;;
5646;SDS011;2845;48.626;9.362;2023-11-22T11:10:52;7.63;;;2.90;;
5646;SDS011;2845;48.626;9.362;2023-11-22T11:13:29;5.93;;;2.70;;
5646;SDS011;2845;48.626;9.362;2023-11-22T11:16:04;6.03;;;2.70;;
5646;SDS011;2845;48.626;9.362;2023-11-22T11:18:40;5.60;;;2.67;;
5646;SDS011;2845;48.626;9.362;2023-11-22T11:21:15;6.88;;;2.97;;
5646;SDS011;2845;48.626;9.362;2023-11-22T11:23:51;6.07;;;3.00;;
5646;SDS011;2845;48.626;9.362;2023-11-22T11:26:31;5.75;;;2.70;;
5646;SDS011;2845;48.626;9.362;2023-11-22T11:29:09;5.60;;;2.35;;
5646;SDS011;2845;48.626;9.362;2023-11-22T11:32:04;6.18;;;2.75;;
5646;SDS011;2845;48.626;9.362;2023-11-22T11:34:47;4.82;;;2.30;;
5646;SDS011;2845;48.626;9.362;2023-11-22T11:37:22;5.10;;;2.53;;
5646;SDS011;2845;48.626;9.362;2023-11-22T11:39:57;4.05;;;2.17;;
5646;SDS011;2845;48.626;9.362;2023-11-22T11:42:32;4.97;;;2.65;;
5646;SDS011;2845;48.626;9.362;2023-11-22T11:45:08;5.20;;;2.15;;
5646;SDS011;2845;48.626;9.362;2023-11-22T11:47:44;4.88;;;2.30;;
5646;SDS011;2845;48.626;9.362;2023-11-22T11:50:20;6.03;;;2.80;;
5646;SDS011;2845;48.626;9.362;2023-11-22T11:52:55;4.72;;;1.98;;
5646;SDS011;2845;48.626;9.362;2023-11-22T11:55:29;5.72;;;2.67;;
5646;SDS011;2845;48.626;9.362;2023-11-22T11:58:04;6.18;;;2.58;;
5646;SDS011;2845;48.626;9.362;2023-11-22T12:00:42;4.18;;;2.20;;
5646;SDS011;2845;48.626;9.362;2023-11-22T12:03:16;4.85;;;2.05;;
5646;SDS011;2845;48.626;9.362;2023-11-22T12:05:54;5.13;;;2.42;;
5646;SDS011;2845;48.626;9.362;2023-11-22T12:08:28;6.35;;;3.08;;
5646;SDS011;2845;48.626;9.362;2023-11-22T12:11:08;5.67;;;2.73;;
5646;SDS011;2845;48.626;9.362;2023-11-22T12:13:42;6.50;;;2.95;;
5646;SDS011;2845;48.626;9.362;2023-11-22T12:16:20;6.38;;;2.63;;
5646;SDS011;2845;48.626;9.362;2023-11-22T12:18:54;6.88;;;2.90;;
5646;SDS011;2845;48.626;9.362;2023-11-22T12:21:30;5.45;;;2.60;;
5646;SDS011;2845;48.626;9.362;2023-11-22T12:24:05;5.60;;;2.47;;
5646;SDS011;2845;48.626;9.362;2023-11-22T12:26:44;5.75;;;2.58;;
5646;SDS011;2845;48.626;9.362;2023-11-22T12:29:21;7.05;;;2.50;;
5646;SDS011;2845;48.626;9.362;2023-11-22T12:31:59;5.85;;;2.63;;
5646;SDS011;2845;48.626;9.362;2023-11-22T12:34:33;4.30;;;2.35;;
5646;SDS011;2845;48.626;9.362;2023-11-22T12:37:07;6.65;;;2.53;;
5646;SDS011;2845;48.626;9.362;2023-11-22T12:39:41;5.47;;;2.60;;
5646;SDS011;2845;48.626;9.362;2023-11-22T12:42:15;5.10;;;2.30;;
5646;SDS011;2845;48.626;9.362;2023-11-22T12:44:49;7.30;;;2.25;;
5646;SDS011;2845;48.626;9.362;2023-11-22T12:47:33;5.03;;;2.17;;
5646;SDS011;2845;48.626;9.362;2023-11-22T12:50:10;4.45;;;2.20;;
5646;SDS011;2845;48.626;9.362;2023-11-22T12:53:13;4.13;;;2.33;;
5646;SDS011;2845;48.626;9.362;2023-11-22T12:55:49;5.38;;;2.55;;
5646;SDS011;2845;48.626;9.362;2023-11-22T12:58:25;5.72;;;2.30;;
5646;SDS011;2845;48.626;9.362;2023-11-22T13:01:00;4.13;;;2.28;;
5646;SDS011;2845;48.626;9.362;2023-11-22T13:03:37;4.63;;;1.90;;
5646;SDS011;2845;48.626;9.362;2023-11-22T13:06:11;4.82;;;2.45;;
5646;SDS011;2845;48.626;9.362;2023-11-22T13:08:45;4.38;;;1.88;;
5646;SDS011;2845;48.626;9.362;2023-11-22T13:11:19;6.50;;;2.60;;
5646;SDS011;2845;48.626;9.362;2023-11-22T13:13:54;3.75;;;1.65;;
5646;SDS011;2845;48.626;9.362;2023-11-22T13:16:28;3.78;;;1.65;;
5646;SDS011;2845;48.626;9.362;2023-11-22T13:19:03;5.68;;;2.50;;
5646;SDS011;2845;48.626;9.362;2023-11-22T13:21:38;5.90;;;2.20;;
5646;SDS011;2845;48.626;9.362;2023-11-22T13:24:13;4.97;;;1.92;;
5646;SDS011;2845;48.626;9.362;2023-11-22T13:26:50;4.22;;;2.05;;
5646;SDS011;2845;48.626;9.362;2023-11-22T13:29:24;6.45;;;2.30;;
5646;SDS011;2845;48.626;9.362;2023-11-22T13:31:58;5.07;;;2.10;;
5646;SDS011;2845;48.626;9.362;2023-11-22T13:34:34;5.45;;;2.83;;
5646;SDS011;2845;48.626;9.362;2023-11-22T13:37:08;6.22;;;2.35;;
5646;SDS011;2845;48.626;9.362;2023-11-22T13:39:42;4.65;;;2.10;;
5646;SDS011;2845;48.626;9.362;2023-11-22T13:42:16;5.47;;;2.33;;
5646;SDS011;2845;48.626;9.362;2023-11-22T13:44:50;5.32;;;2.30;;
5646;SDS011;2845;48.626;9.362;2023-11-22T13:47:24;5.38;;;2.15;;
5646;SDS011;2845;48.626;9.362;2023-11-22T13:50:00;4.28;;;2.03;;
5646;SDS011;2845;48.626;9.362;2023-11-22T13:52:35;4.15;;;2.10;;
5646;SDS011;2845;48.626;9.362;2023-11-22T13:55:10;5.95;;;2.55;;
5646;SDS011;2845;48.626;9.362;2023-11-22T13:57:45;6.47;;;2.60;;
5646;SDS011;2845;48.626;9.362;2023-11-22T14:00:19;7.15;;;2.25;;
5646;SDS011;2845;48.626;9.362;2023-11-22T14:02:56;6.40;;;1.67;;
5646;SDS011;2845;48.626;9.362;2023-11-22T14:05:38;5.55;;;2.42;;
5646;SDS011;2845;48.626;9.362;2023-11-22T14:08:12;4.75;;;2.47;;
5646;SDS011;2845;48.626;9.362;2023-11-22T14:10:48;4.30;;;2.05;;
5646;SDS011;2845;48.626;9.362;2023-11-22T14:13:23;5.15;;;1.98;;
5646;SDS011;2845;48.626;9.362;2023-11-22T14:15:57;5.95;;;2.55;;
5646;SDS011;2845;48.626;9.362;2023-11-22T14:18:33;5.07;;;2.42;;
5646;SDS011;2845;48.626;9.362;2023-11-22T14:21:09;4.25;;;1.70;;
5646;SDS011;2845;48.626;9.362;2023-11-22T14:23:43;4.55;;;2.10;;
5646;SDS011;2845;48.626;9.362;2023-11-22T14:26:17;5.18;;;1.77;;
5646;SDS011;2845;48.626;9.362;2023-11-22T14:28:52;4.63;;;1.85;;
5646;SDS011;2845;48.626;9.362;2023-11-22T14:31:27;3.90;;;1.95;;
5646;SDS011;2845;48.626;9.362;2023-11-22T14:34:01;6.72;;;2.20;;
5646;SDS011;2845;48.626;9.362;2023-11-22T14:36:39;4.65;;;2.28;;
5646;SDS011;2845;48.626;9.362;2023-11-22T14:39:14;5.13;;;2.42;;
5646;SDS011;2845;48.626;9.362;2023-11-22T14:41:48;4.55;;;2.42;;
5646;SDS011;2845;48.626;9.362;2023-11-22T14:44:23;4.78;;;2.40;;
5646;SDS011;2845;48.626;9.362;2023-11-22T14:46:57;4.65;;;2.40;;
5646;SDS011;2845;48.626;9.362;2023-11-22T14:49:32;5.38;;;2.45;;
5646;SDS011;2845;48.626;9.362;2023-11-22T14:52:19;5.88;;;2.25;;
5646;SDS011;2845;48.626;9.362;2023-11-22T14:54:55;5.88;;;2.50;;
5646;SDS011;2845;48.626;9.362;2023-11-22T14:57:32;4.38;;;2.30;;
5646;SDS011;2845;48.626;9.362;2023-11-22T15:00:07;4.45;;;2.10;;
5646;SDS011;2845;48.626;9.362;2023-11-22T15:02:46;4.57;;;2.28;;
5646;SDS011;2845;48.626;9.362;2023-11-22T15:05:25;5.45;;;2.38;;
5646;SDS011;2845;48.626;9.362;2023-11-22T15:08:01;4.90;;;2.28;;
5646;SDS011;2845;48.626;9.362;2023-11-22T15:10:36;3.50;;;1.92;;
5646;SDS011;2845;48.626;9.362;2023-11-22T15:13:10;5.65;;;2.55;;
5646;SDS011;2845;48.626;9.362;2023-11-22T15:15:48;7.38;;;2.63;;
5646;SDS011;2845;48.626;9.362;2023-11-22T15:18:22;4.32;;;2.40;;
5646;SDS011;2845;48.626;9.362;2023-11-22T15:20:57;7.85;;;3.58;;
5646;SDS011;2845;48.626;9.362;2023-11-22T15:23:33;7.68;;;3.65;;
5646;SDS011;2845;48.626;9.362;2023-11-22T15:26:07;11.55;;;5.22;;
5646;SDS011;2845;48.626;9.362;2023-11-22T15:28:42;8.52;;;4.00;;
5646;SDS011;2845;48.626;9.362;2023-11-22T15:31:18;6.20;;;3.05;;
5646;SDS011;2845;48.626;9.362;2023-11-22T15:33:55;4.45;;;2.05;;
5646;SDS011;2845;48.626;9.362;2023-11-22T15:36:29;6.97;;;2.08;;
5646;SDS011;2845;48.626;9.362;2023-11-22T15:39:06;5.55;;;2.35;;
5646;SDS011;2845;48.626;9.362;2023-11-22T15:41:44;6.47;;;2.58;;
5646;SDS011;2845;48.626;9.362;2023-11-22T15:44:19;4.10;;;2.00;;
5646;SDS011;2845;48.626;9.362;2023-11-22T15:46:54;5.03;;;2.63;;
5646;SDS011;2845;48.626;9.362;2023-11-22T15:49:28;5.43;;;2.63;;
5646;SDS011;2845;48.626;9.362;2023-11-22T15:52:03;5.22;;;2.35;;
5646;SDS011;2845;48.626;9.362;2023-11-22T15:54:39;5.22;;;2.33;;
5646;SDS011;2845;48.626;9.362;2023-11-22T15:57:15;6.40;;;2.20;;
5646;SDS011;2845;48.626;9.362;2023-11-22T15:59:49;4.57;;;2.47;;
5646;SDS011;2845;48.626;9.362;2023-11-22T16:02:23;5.43;;;2.53;;
5646;SDS011;2845;48.626;9.362;2023-11-22T16:05:00;5.65;;;2.28;;
5646;SDS011;2845;48.626;9.362;2023-11-22T16:07:34;5.07;;;2.30;;
5646;SDS011;2845;48.626;9.362;2023-11-22T16:10:10;4.32;;;2.20;;